Terminal Aerodrome Forecast
Issued by NWS

Current Version | Previous Version | Text Only | Print | Product List | Glossary On
Versions: 1 2 3 4 5 6 7 8 9 10 11 12 13 14 15 16 17
000
FTUS45 KRIW 271100
TAFRKS
TAF
KRKS 271125Z 2712/2812 04011KT P6SM -RASN SCT008 OVC015
      TEMPO 2712/2716 4SM -SNRA BR OVC008
     FM271600 05010G20KT P6SM VCSH SCT015 OVC030
     FM271800 05012KT P6SM SCT025 BKN050
     FM280000 07015KT P6SM SCT050=

USA.gov is the U.S. government's official web portal to all federal, state and local government web resources and services.